EHEH

Eindhoven Airport

Eindhoven, The Netherlands
METAR EHEH 180831Z AUTO 33009KT 280V010 9000 BR FEW009 SCT017 OVC022 07/05 Q1021 WHT 33010KT 9999 SCT010 BKN015
Observed Flight Rules
Dec-18 @ 08:31 UTC (11 minutes ago) Marginal Visual Flight Rules
Wind Visibility Clouds Conditions
330° at 9 knots 10,000+ meters
  • Few at 900' AGL
  • Scattered at 1,700' AGL
  • Overcast at 2,200' AGL
  • Scattered at 1,000' AGL
  • Mist
Temperatures Readings
Current 7°C / 45°F
Dewpoint 5°C / 41°F
Humidity 87%
Altimeter 30.15" Hg
Pressure 1021 hPa
Elevation 22
METAR EHEH 180831Z AUTO 33009KT 280V010 9000 BR FEW009 SCT017 OVC022 07/05 Q1021 WHT 33010KT 9999 SCT010 BKN015
Observed Flight Rules
Dec-18 @ 08:31 UTC
(11 minutes ago)
MVFR
Wind Visibility
330° at 9 knots 10,000+ meters
Clouds
  • Few at 900' AGL
  • Scattered at 1,700' AGL
  • Overcast at 2,200' AGL
  • Scattered at 1,000' AGL
Conditions
  • Mist
Temperature Dewpoint
7°C / 45°F 5°C / 41°F
Humidity Altimeter Pressure
87% 30.15" Hg 1021 hPa